sensor_id;sensor_type;location;lat;lon;timestamp;temperature;humidity
52159;DHT22;38145;53.182;6.284;2022-10-03T00:00:10;11.20;99.90
52159;DHT22;38145;53.182;6.284;2022-10-03T00:02:51;11.30;99.90
52159;DHT22;38145;53.182;6.284;2022-10-03T00:13:45;11.30;99.90
52159;DHT22;38145;53.182;6.284;2022-10-03T00:16:22;11.30;99.90
52159;DHT22;38145;53.182;6.284;2022-10-03T00:18:58;11.30;99.90
52159;DHT22;38145;53.182;6.284;2022-10-03T00:21:39;11.20;99.90
52159;DHT22;38145;53.182;6.284;2022-10-03T00:24:22;11.30;99.90
52159;DHT22;38145;53.182;6.284;2022-10-03T00:27:02;11.30;99.90
52159;DHT22;38145;53.182;6.284;2022-10-03T00:30:04;11.10;99.90
52159;DHT22;38145;53.182;6.284;2022-10-03T00:32:47;11.20;99.90
52159;DHT22;38145;53.182;6.284;2022-10-03T00:35:28;11.10;99.90
52159;DHT22;38145;53.182;6.284;2022-10-03T00:38:31;11.20;99.90
52159;DHT22;38145;53.182;6.284;2022-10-03T00:41:04;11.30;99.90
52159;DHT22;38145;53.182;6.284;2022-10-03T00:44:16;11.30;99.90
52159;DHT22;38145;53.182;6.284;2022-10-03T00:47:10;11.30;99.90
52159;DHT22;38145;53.182;6.284;2022-10-03T00:52:46;11.20;99.90
52159;DHT22;38145;53.182;6.284;2022-10-03T01:00:50;11.20;99.90
52159;DHT22;38145;53.182;6.284;2022-10-03T01:03:34;11.20;99.90
52159;DHT22;38145;53.182;6.284;2022-10-03T01:09:03;11.30;99.90
52159;DHT22;38145;53.182;6.284;2022-10-03T01:17:11;11.30;99.90
52159;DHT22;38145;53.182;6.284;2022-10-03T01:22:40;11.50;99.90
52159;DHT22;38145;53.182;6.284;2022-10-03T01:25:18;11.50;99.90
52159;DHT22;38145;53.182;6.284;2022-10-03T01:30:40;11.50;99.90
52159;DHT22;38145;53.182;6.284;2022-10-03T01:33:18;11.60;99.90
52159;DHT22;38145;53.182;6.284;2022-10-03T01:35:56;11.40;99.90
52159;DHT22;38145;53.182;6.284;2022-10-03T01:38:43;11.60;99.90
52159;DHT22;38145;53.182;6.284;2022-10-03T01:41:27;11.40;99.90
52159;DHT22;38145;53.182;6.284;2022-10-03T01:46:38;11.50;99.90
52159;DHT22;38145;53.182;6.284;2022-10-03T01:49:14;11.50;99.90
52159;DHT22;38145;53.182;6.284;2022-10-03T01:52:05;11.50;99.90
52159;DHT22;38145;53.182;6.284;2022-10-03T01:54:41;11.40;99.90
52159;DHT22;38145;53.182;6.284;2022-10-03T01:57:28;11.40;99.90
52159;DHT22;38145;53.182;6.284;2022-10-03T02:00:11;11.50;99.90
52159;DHT22;38145;53.182;6.284;2022-10-03T02:02:59;11.30;99.90
52159;DHT22;38145;53.182;6.284;2022-10-03T02:11:01;11.40;99.90
52159;DHT22;38145;53.182;6.284;2022-10-03T02:13:44;11.30;99.90
52159;DHT22;38145;53.182;6.284;2022-10-03T02:16:45;11.40;99.90
52159;DHT22;38145;53.182;6.284;2022-10-03T02:19:40;11.20;99.90
52159;DHT22;38145;53.182;6.284;2022-10-03T02:22:45;11.40;99.90
52159;DHT22;38145;53.182;6.284;2022-10-03T02:25:08;11.30;99.90
52159;DHT22;38145;53.182;6.284;2022-10-03T02:30:33;11.20;99.90
52159;DHT22;38145;53.182;6.284;2022-10-03T02:33:32;11.30;99.90
52159;DHT22;38145;53.182;6.284;2022-10-03T02:36:14;11.30;99.90
52159;DHT22;38145;53.182;6.284;2022-10-03T02:39:11;11.30;99.90
52159;DHT22;38145;53.182;6.284;2022-10-03T02:44:53;11.30;99.90
52159;DHT22;38145;53.182;6.284;2022-10-03T02:47:38;11.30;99.90
52159;DHT22;38145;53.182;6.284;2022-10-03T02:50:34;11.20;99.90
52159;DHT22;38145;53.182;6.284;2022-10-03T02:53:39;11.30;99.90
52159;DHT22;38145;53.182;6.284;2022-10-03T02:56:26;11.10;99.90
52159;DHT22;38145;53.182;6.284;2022-10-03T02:59:09;11.30;99.90
52159;DHT22;38145;53.182;6.284;2022-10-03T03:01:49;11.30;99.90
52159;DHT22;38145;53.182;6.284;2022-10-03T03:10:05;11.10;99.90
52159;DHT22;38145;53.182;6.284;2022-10-03T03:18:24;11.20;99.90
52159;DHT22;38145;53.182;6.284;2022-10-03T03:21:09;11.00;99.90
52159;DHT22;38145;53.182;6.284;2022-10-03T03:23:49;11.20;99.90
52159;DHT22;38145;53.182;6.284;2022-10-03T03:26:40;11.10;99.90
52159;DHT22;38145;53.182;6.284;2022-10-03T03:32:38;10.90;99.90
52159;DHT22;38145;53.182;6.284;2022-10-03T03:35:32;11.10;99.90
52159;DHT22;38145;53.182;6.284;2022-10-03T03:38:17;11.00;99.90
52159;DHT22;38145;53.182;6.284;2022-10-03T03:41:13;10.90;99.90
52159;DHT22;38145;53.182;6.284;2022-10-03T03:50:15;10.90;99.90
52159;DHT22;38145;53.182;6.284;2022-10-03T03:53:01;11.00;99.90
52159;DHT22;38145;53.182;6.284;2022-10-03T03:58:26;10.90;99.90
52159;DHT22;38145;53.182;6.284;2022-10-03T04:01:27;11.00;99.90
52159;DHT22;38145;53.182;6.284;2022-10-03T04:04:07;10.90;99.90
52159;DHT22;38145;53.182;6.284;2022-10-03T04:12:08;11.00;99.90
52159;DHT22;38145;53.182;6.284;2022-10-03T04:14:45;10.90;99.90
52159;DHT22;38145;53.182;6.284;2022-10-03T04:20:58;10.80;99.90
52159;DHT22;38145;53.182;6.284;2022-10-03T04:23:50;10.80;99.90
52159;DHT22;38145;53.182;6.284;2022-10-03T04:29:20;10.70;99.90
52159;DHT22;38145;53.182;6.284;2022-10-03T04:32:07;10.70;99.90
52159;DHT22;38145;53.182;6.284;2022-10-03T04:34:49;10.80;99.90
52159;DHT22;38145;53.182;6.284;2022-10-03T04:39:56;10.80;99.90
52159;DHT22;38145;53.182;6.284;2022-10-03T04:42:35;10.60;99.90
52159;DHT22;38145;53.182;6.284;2022-10-03T04:45:27;10.80;99.90
52159;DHT22;38145;53.182;6.284;2022-10-03T04:50:39;10.80;99.90
52159;DHT22;38145;53.182;6.284;2022-10-03T04:53:25;10.60;99.90
52159;DHT22;38145;53.182;6.284;2022-10-03T04:56:10;10.50;99.90
52159;DHT22;38145;53.182;6.284;2022-10-03T04:58:44;10.70;99.90
52159;DHT22;38145;53.182;6.284;2022-10-03T05:01:18;10.50;99.90
52159;DHT22;38145;53.182;6.284;2022-10-03T05:06:36;10.60;99.90
52159;DHT22;38145;53.182;6.284;2022-10-03T05:12:50;10.50;99.90
52159;DHT22;38145;53.182;6.284;2022-10-03T05:15:14;10.50;99.90
52159;DHT22;38145;53.182;6.284;2022-10-03T05:18:20;10.60;99.90
52159;DHT22;38145;53.182;6.284;2022-10-03T05:20:59;10.40;99.90
52159;DHT22;38145;53.182;6.284;2022-10-03T05:23:50;10.40;99.90
52159;DHT22;38145;53.182;6.284;2022-10-03T05:26:24;10.60;99.90
52159;DHT22;38145;53.182;6.284;2022-10-03T05:29:09;10.50;99.90
52159;DHT22;38145;53.182;6.284;2022-10-03T05:32:04;10.60;99.90
52159;DHT22;38145;53.182;6.284;2022-10-03T05:40:25;10.50;99.90
52159;DHT22;38145;53.182;6.284;2022-10-03T05:43:00;10.40;99.90
52159;DHT22;38145;53.182;6.284;2022-10-03T05:45:41;10.50;99.90
52159;DHT22;38145;53.182;6.284;2022-10-03T05:48:23;10.30;99.90
52159;DHT22;38145;53.182;6.284;2022-10-03T05:51:20;10.50;99.90
52159;DHT22;38145;53.182;6.284;2022-10-03T05:57:03;10.40;99.90
52159;DHT22;38145;53.182;6.284;2022-10-03T06:05:12;10.40;99.90
52159;DHT22;38145;53.182;6.284;2022-10-03T06:08:05;10.40;99.90
52159;DHT22;38145;53.182;6.284;2022-10-03T06:10:41;10.40;99.90
52159;DHT22;38145;53.182;6.284;2022-10-03T06:13:22;10.40;99.90
52159;DHT22;38145;53.182;6.284;2022-10-03T06:16:17;10.40;99.90
52159;DHT22;38145;53.182;6.284;2022-10-03T06:19:10;10.30;99.90
52159;DHT22;38145;53.182;6.284;2022-10-03T06:21:59;10.30;99.90
52159;DHT22;38145;53.182;6.284;2022-10-03T06:25:10;10.30;99.90
52159;DHT22;38145;53.182;6.284;2022-10-03T06:31:23;10.40;99.90
52159;DHT22;38145;53.182;6.284;2022-10-03T06:34:17;10.30;99.90
52159;DHT22;38145;53.182;6.284;2022-10-03T06:37:09;10.30;99.90
52159;DHT22;38145;53.182;6.284;2022-10-03T06:45:25;10.40;99.90
52159;DHT22;38145;53.182;6.284;2022-10-03T06:58:56;10.70;99.90
52159;DHT22;38145;53.182;6.284;2022-10-03T07:01:46;10.70;99.90
52159;DHT22;38145;53.182;6.284;2022-10-03T07:09:49;10.90;99.90
52159;DHT22;38145;53.182;6.284;2022-10-03T07:12:44;11.10;99.90
52159;DHT22;38145;53.182;6.284;2022-10-03T07:17:57;11.20;99.90
52159;DHT22;38145;53.182;6.284;2022-10-03T07:20:50;11.30;99.90
52159;DHT22;38145;53.182;6.284;2022-10-03T07:23:39;11.30;99.90
52159;DHT22;38145;53.182;6.284;2022-10-03T07:29:26;11.80;99.90
52159;DHT22;38145;53.182;6.284;2022-10-03T07:32:10;11.90;99.90
52159;DHT22;38145;53.182;6.284;2022-10-03T07:35:06;12.00;99.90
52159;DHT22;38145;53.182;6.284;2022-10-03T07:37:41;12.00;99.90
52159;DHT22;38145;53.182;6.284;2022-10-03T07:40:56;11.90;99.90
52159;DHT22;38145;53.182;6.284;2022-10-03T07:43:30;12.30;99.90
52159;DHT22;38145;53.182;6.284;2022-10-03T07:49:19;12.40;99.90
52159;DHT22;38145;53.182;6.284;2022-10-03T07:54:50;13.10;99.90
52159;DHT22;38145;53.182;6.284;2022-10-03T07:57:35;13.50;99.90
52159;DHT22;38145;53.182;6.284;2022-10-03T08:00:16;14.00;99.90
52159;DHT22;38145;53.182;6.284;2022-10-03T08:06:00;14.10;99.90
52159;DHT22;38145;53.182;6.284;2022-10-03T08:11:25;14.10;99.90
52159;DHT22;38145;53.182;6.284;2022-10-03T08:16:44;14.00;99.90
52159;DHT22;38145;53.182;6.284;2022-10-03T08:19:34;14.00;99.90
52159;DHT22;38145;53.182;6.284;2022-10-03T08:25:15;13.80;99.90
52159;DHT22;38145;53.182;6.284;2022-10-03T08:27:58;13.90;99.90
52159;DHT22;38145;53.182;6.284;2022-10-03T08:38:31;15.70;99.90
52159;DHT22;38145;53.182;6.284;2022-10-03T08:43:50;16.50;99.90
52159;DHT22;38145;53.182;6.284;2022-10-03T08:51:52;17.30;99.90
52159;DHT22;38145;53.182;6.284;2022-10-03T08:57:45;17.70;99.90
52159;DHT22;38145;53.182;6.284;2022-10-03T09:00:21;18.00;99.90
52159;DHT22;38145;53.182;6.284;2022-10-03T09:02:58;18.10;99.90
52159;DHT22;38145;53.182;6.284;2022-10-03T09:14:10;18.10;99.90
52159;DHT22;38145;53.182;6.284;2022-10-03T09:19:48;18.10;99.90
52159;DHT22;38145;53.182;6.284;2022-10-03T09:25:13;18.10;99.90
52159;DHT22;38145;53.182;6.284;2022-10-03T09:28:16;18.10;99.90
52159;DHT22;38145;53.182;6.284;2022-10-03T09:30:58;18.10;99.90
52159;DHT22;38145;53.182;6.284;2022-10-03T09:39:17;18.00;99.90
52159;DHT22;38145;53.182;6.284;2022-10-03T09:42:16;18.10;99.90
52159;DHT22;38145;53.182;6.284;2022-10-03T09:48:02;18.00;99.90
52159;DHT22;38145;53.182;6.284;2022-10-03T09:53:24;18.20;99.90
52159;DHT22;38145;53.182;6.284;2022-10-03T10:04:19;18.10;99.90
52159;DHT22;38145;53.182;6.284;2022-10-03T10:07:40;18.00;99.90
52159;DHT22;38145;53.182;6.284;2022-10-03T10:10:50;17.90;99.90
52159;DHT22;38145;53.182;6.284;2022-10-03T10:13:45;17.80;99.90
52159;DHT22;38145;53.182;6.284;2022-10-03T10:16:34;17.70;99.90
52159;DHT22;38145;53.182;6.284;2022-10-03T10:19:33;17.60;99.90
52159;DHT22;38145;53.182;6.284;2022-10-03T10:24:55;17.70;99.90
52159;DHT22;38145;53.182;6.284;2022-10-03T10:30:19;18.00;99.90
52159;DHT22;38145;53.182;6.284;2022-10-03T10:35:49;18.00;99.90
52159;DHT22;38145;53.182;6.284;2022-10-03T10:38:25;17.90;99.90
52159;DHT22;38145;53.182;6.284;2022-10-03T10:43:52;18.00;99.90
52159;DHT22;38145;53.182;6.284;2022-10-03T10:50:01;17.70;99.90
52159;DHT22;38145;53.182;6.284;2022-10-03T10:52:45;17.80;99.90
52159;DHT22;38145;53.182;6.284;2022-10-03T10:55:40;17.80;99.90
52159;DHT22;38145;53.182;6.284;2022-10-03T10:58:48;17.80;99.90
52159;DHT22;38145;53.182;6.284;2022-10-03T11:07:23;17.80;99.90
52159;DHT22;38145;53.182;6.284;2022-10-03T11:13:13;17.80;99.90
52159;DHT22;38145;53.182;6.284;2022-10-03T11:16:16;17.80;99.90
52159;DHT22;38145;53.182;6.284;2022-10-03T11:18:57;17.80;99.90
52159;DHT22;38145;53.182;6.284;2022-10-03T11:21:50;17.70;99.90
52159;DHT22;38145;53.182;6.284;2022-10-03T11:24:49;17.80;99.90
52159;DHT22;38145;53.182;6.284;2022-10-03T11:31:05;17.80;99.90
52159;DHT22;38145;53.182;6.284;2022-10-03T11:36:42;17.90;99.90
52159;DHT22;38145;53.182;6.284;2022-10-03T11:39:26;17.90;99.90
52159;DHT22;38145;53.182;6.284;2022-10-03T11:42:05;17.90;99.90
52159;DHT22;38145;53.182;6.284;2022-10-03T11:44:45;17.90;99.90
52159;DHT22;38145;53.182;6.284;2022-10-03T11:53:06;17.80;99.90
52159;DHT22;38145;53.182;6.284;2022-10-03T11:55:44;17.80;99.90
52159;DHT22;38145;53.182;6.284;2022-10-03T12:03:56;17.50;99.90
52159;DHT22;38145;53.182;6.284;2022-10-03T12:06:43;17.60;99.90
52159;DHT22;38145;53.182;6.284;2022-10-03T12:09:46;17.40;99.90
52159;DHT22;38145;53.182;6.284;2022-10-03T12:14:56;17.10;99.90
52159;DHT22;38145;53.182;6.284;2022-10-03T12:17:34;17.30;99.90
52159;DHT22;38145;53.182;6.284;2022-10-03T12:20:08;17.20;99.90
52159;DHT22;38145;53.182;6.284;2022-10-03T12:22:48;17.20;99.90
52159;DHT22;38145;53.182;6.284;2022-10-03T12:25:26;17.40;99.90
52159;DHT22;38145;53.182;6.284;2022-10-03T12:28:08;17.40;99.90
52159;DHT22;38145;53.182;6.284;2022-10-03T12:30:46;17.70;99.90
52159;DHT22;38145;53.182;6.284;2022-10-03T12:41:23;17.30;99.90
52159;DHT22;38145;53.182;6.284;2022-10-03T12:43:56;17.50;99.90
52159;DHT22;38145;53.182;6.284;2022-10-03T12:46:43;17.70;99.90
52159;DHT22;38145;53.182;6.284;2022-10-03T12:49:18;17.70;99.90
52159;DHT22;38145;53.182;6.284;2022-10-03T12:51:57;17.50;99.90
52159;DHT22;38145;53.182;6.284;2022-10-03T12:54:38;17.50;99.90
52159;DHT22;38145;53.182;6.284;2022-10-03T12:59:53;17.50;99.90
52159;DHT22;38145;53.182;6.284;2022-10-03T13:02:30;17.50;99.90
52159;DHT22;38145;53.182;6.284;2022-10-03T13:05:28;17.70;99.90
52159;DHT22;38145;53.182;6.284;2022-10-03T13:08:16;17.60;99.90
52159;DHT22;38145;53.182;6.284;2022-10-03T13:10:49;17.80;99.90
52159;DHT22;38145;53.182;6.284;2022-10-03T13:13:32;17.60;99.90
52159;DHT22;38145;53.182;6.284;2022-10-03T13:18:50;17.40;99.90
52159;DHT22;38145;53.182;6.284;2022-10-03T13:23:52;17.60;99.90
52159;DHT22;38145;53.182;6.284;2022-10-03T13:26:47;17.50;99.90
52159;DHT22;38145;53.182;6.284;2022-10-03T13:34:24;17.50;99.90
52159;DHT22;38145;53.182;6.284;2022-10-03T13:37:02;17.70;99.90
52159;DHT22;38145;53.182;6.284;2022-10-03T13:44:46;17.70;99.90
52159;DHT22;38145;53.182;6.284;2022-10-03T13:49:53;17.60;99.90
52159;DHT22;38145;53.182;6.284;2022-10-03T13:52:36;17.60;99.90
52159;DHT22;38145;53.182;6.284;2022-10-03T13:55:19;17.60;99.90
52159;DHT22;38145;53.182;6.284;2022-10-03T14:01:00;17.50;99.90
52159;DHT22;38145;53.182;6.284;2022-10-03T14:06:26;17.60;99.90
52159;DHT22;38145;53.182;6.284;2022-10-03T14:09:14;17.40;99.90
52159;DHT22;38145;53.182;6.284;2022-10-03T14:11:59;17.30;99.90
52159;DHT22;38145;53.182;6.284;2022-10-03T14:14:41;17.30;99.90
52159;DHT22;38145;53.182;6.284;2022-10-03T14:17:29;17.40;99.90
52159;DHT22;38145;53.182;6.284;2022-10-03T14:20:27;17.40;99.90
52159;DHT22;38145;53.182;6.284;2022-10-03T14:25:28;17.30;99.90
52159;DHT22;38145;53.182;6.284;2022-10-03T14:28:22;17.50;99.90
52159;DHT22;38145;53.182;6.284;2022-10-03T14:31:21;17.30;99.90
52159;DHT22;38145;53.182;6.284;2022-10-03T14:33:58;17.30;99.90
52159;DHT22;38145;53.182;6.284;2022-10-03T14:44:22;17.20;99.90
52159;DHT22;38145;53.182;6.284;2022-10-03T14:46:56;17.20;99.90
52159;DHT22;38145;53.182;6.284;2022-10-03T14:49:26;17.20;99.90
52159;DHT22;38145;53.182;6.284;2022-10-03T14:52:02;17.20;99.90
52159;DHT22;38145;53.182;6.284;2022-10-03T14:54:30;17.20;99.90
52159;DHT22;38145;53.182;6.284;2022-10-03T14:57:23;17.20;99.90
52159;DHT22;38145;53.182;6.284;2022-10-03T14:59:54;17.10;99.90
52159;DHT22;38145;53.182;6.284;2022-10-03T15:02:30;17.20;99.90
52159;DHT22;38145;53.182;6.284;2022-10-03T15:05:13;17.10;99.90
52159;DHT22;38145;53.182;6.284;2022-10-03T15:07:44;17.10;99.90
52159;DHT22;38145;53.182;6.284;2022-10-03T15:10:14;17.00;99.90
52159;DHT22;38145;53.182;6.284;2022-10-03T15:12:47;17.10;99.90
52159;DHT22;38145;53.182;6.284;2022-10-03T15:15:23;17.00;99.90
52159;DHT22;38145;53.182;6.284;2022-10-03T15:17:55;17.20;99.90
52159;DHT22;38145;53.182;6.284;2022-10-03T15:20:33;17.00;99.90
52159;DHT22;38145;53.182;6.284;2022-10-03T15:23:05;17.30;99.90
52159;DHT22;38145;53.182;6.284;2022-10-03T15:25:36;17.10;99.90
52159;DHT22;38145;53.182;6.284;2022-10-03T15:28:11;16.90;99.90
52159;DHT22;38145;53.182;6.284;2022-10-03T15:30:39;17.10;99.90
52159;DHT22;38145;53.182;6.284;2022-10-03T15:33:16;17.00;99.90
52159;DHT22;38145;53.182;6.284;2022-10-03T15:35:51;16.90;99.90
52159;DHT22;38145;53.182;6.284;2022-10-03T15:38:22;16.80;99.90
52159;DHT22;38145;53.182;6.284;2022-10-03T15:41:07;16.80;99.90
52159;DHT22;38145;53.182;6.284;2022-10-03T15:43:35;17.80;99.90
52159;DHT22;38145;53.182;6.284;2022-10-03T15:46:16;16.80;99.90
52159;DHT22;38145;53.182;6.284;2022-10-03T15:48:44;16.70;99.90
52159;DHT22;38145;53.182;6.284;2022-10-03T15:51:17;16.70;99.90
52159;DHT22;38145;53.182;6.284;2022-10-03T15:53:47;16.60;99.90
52159;DHT22;38145;53.182;6.284;2022-10-03T15:56:20;16.50;99.90
52159;DHT22;38145;53.182;6.284;2022-10-03T15:58:52;16.50;99.90
52159;DHT22;38145;53.182;6.284;2022-10-03T16:01:24;16.50;99.90
52159;DHT22;38145;53.182;6.284;2022-10-03T16:03:59;16.50;99.90
52159;DHT22;38145;53.182;6.284;2022-10-03T16:09:18;16.40;99.90
52159;DHT22;38145;53.182;6.284;2022-10-03T16:12:21;16.50;99.90
52159;DHT22;38145;53.182;6.284;2022-10-03T16:15:09;16.40;99.90
52159;DHT22;38145;53.182;6.284;2022-10-03T16:17:48;16.30;99.90
52159;DHT22;38145;53.182;6.284;2022-10-03T16:20:27;16.30;99.90
52159;DHT22;38145;53.182;6.284;2022-10-03T16:22:58;16.20;99.90
52159;DHT22;38145;53.182;6.284;2022-10-03T16:25:31;16.20;99.90
52159;DHT22;38145;53.182;6.284;2022-10-03T16:28:07;16.20;99.90
52159;DHT22;38145;53.182;6.284;2022-10-03T16:30:41;16.10;99.90
52159;DHT22;38145;53.182;6.284;2022-10-03T16:33:20;16.00;99.90
52159;DHT22;38145;53.182;6.284;2022-10-03T16:35:53;16.30;99.90
52159;DHT22;38145;53.182;6.284;2022-10-03T16:38:26;16.00;99.90
52159;DHT22;38145;53.182;6.284;2022-10-03T16:40:57;16.10;99.90
52159;DHT22;38145;53.182;6.284;2022-10-03T16:43:25;16.00;99.90
52159;DHT22;38145;53.182;6.284;2022-10-03T16:45:53;16.00;99.90
52159;DHT22;38145;53.182;6.284;2022-10-03T16:48:27;15.90;99.90
52159;DHT22;38145;53.182;6.284;2022-10-03T16:51:21;15.90;99.90
52159;DHT22;38145;53.182;6.284;2022-10-03T16:53:52;15.80;99.90
52159;DHT22;38145;53.182;6.284;2022-10-03T16:56:24;15.70;99.90
52159;DHT22;38145;53.182;6.284;2022-10-03T16:58:56;15.90;99.90
52159;DHT22;38145;53.182;6.284;2022-10-03T17:01:30;15.60;99.90
52159;DHT22;38145;53.182;6.284;2022-10-03T17:04:11;15.60;99.90
52159;DHT22;38145;53.182;6.284;2022-10-03T17:06:39;15.80;99.90
52159;DHT22;38145;53.182;6.284;2022-10-03T17:09:16;15.50;99.90
52159;DHT22;38145;53.182;6.284;2022-10-03T17:11:50;15.50;99.90
52159;DHT22;38145;53.182;6.284;2022-10-03T17:14:19;15.50;99.90
52159;DHT22;38145;53.182;6.284;2022-10-03T17:16:55;15.40;99.90
52159;DHT22;38145;53.182;6.284;2022-10-03T17:19:28;15.30;99.90
52159;DHT22;38145;53.182;6.284;2022-10-03T17:22:23;15.20;99.90
52159;DHT22;38145;53.182;6.284;2022-10-03T17:24:52;15.20;99.90
52159;DHT22;38145;53.182;6.284;2022-10-03T17:27:26;15.10;99.90
52159;DHT22;38145;53.182;6.284;2022-10-03T17:30:00;14.90;99.90
52159;DHT22;38145;53.182;6.284;2022-10-03T17:32:35;14.70;99.90
52159;DHT22;38145;53.182;6.284;2022-10-03T17:35:17;14.60;99.90
52159;DHT22;38145;53.182;6.284;2022-10-03T17:37:59;14.50;99.90
52159;DHT22;38145;53.182;6.284;2022-10-03T17:40:50;14.60;99.90
52159;DHT22;38145;53.182;6.284;2022-10-03T17:43:36;14.40;99.90
52159;DHT22;38145;53.182;6.284;2022-10-03T17:46:10;14.40;99.90
52159;DHT22;38145;53.182;6.284;2022-10-03T17:48:49;14.30;99.90
52159;DHT22;38145;53.182;6.284;2022-10-03T17:51:31;14.30;99.90
52159;DHT22;38145;53.182;6.284;2022-10-03T17:54:04;14.40;99.90
52159;DHT22;38145;53.182;6.284;2022-10-03T17:56:33;14.40;99.90
52159;DHT22;38145;53.182;6.284;2022-10-03T17:59:05;14.40;99.90
52159;DHT22;38145;53.182;6.284;2022-10-03T18:01:41;14.40;99.90
52159;DHT22;38145;53.182;6.284;2022-10-03T18:04:17;14.40;99.90
52159;DHT22;38145;53.182;6.284;2022-10-03T18:06:48;14.30;99.90
52159;DHT22;38145;53.182;6.284;2022-10-03T18:11:45;14.10;99.90
52159;DHT22;38145;53.182;6.284;2022-10-03T18:14:27;14.10;99.90
52159;DHT22;38145;53.182;6.284;2022-10-03T18:17:19;14.00;99.90
52159;DHT22;38145;53.182;6.284;2022-10-03T18:22:30;13.90;99.90
52159;DHT22;38145;53.182;6.284;2022-10-03T18:28:12;13.90;99.90
52159;DHT22;38145;53.182;6.284;2022-10-03T18:30:50;13.90;99.90
52159;DHT22;38145;53.182;6.284;2022-10-03T18:33:24;13.90;99.90
52159;DHT22;38145;53.182;6.284;2022-10-03T18:35:54;13.80;99.90
52159;DHT22;38145;53.182;6.284;2022-10-03T18:38:25;13.80;99.90
52159;DHT22;38145;53.182;6.284;2022-10-03T18:40:55;14.00;99.90
52159;DHT22;38145;53.182;6.284;2022-10-03T18:43:37;13.70;99.90
52159;DHT22;38145;53.182;6.284;2022-10-03T18:48:57;13.60;99.90
52159;DHT22;38145;53.182;6.284;2022-10-03T18:56:30;13.50;99.90
52159;DHT22;38145;53.182;6.284;2022-10-03T18:59:06;13.50;99.90
52159;DHT22;38145;53.182;6.284;2022-10-03T19:01:43;13.60;99.90
52159;DHT22;38145;53.182;6.284;2022-10-03T19:04:19;13.50;99.90
52159;DHT22;38145;53.182;6.284;2022-10-03T19:06:51;13.80;99.90
52159;DHT22;38145;53.182;6.284;2022-10-03T19:09:23;13.60;99.90
52159;DHT22;38145;53.182;6.284;2022-10-03T19:12:07;13.30;99.90
52159;DHT22;38145;53.182;6.284;2022-10-03T19:14:48;13.30;99.90
52159;DHT22;38145;53.182;6.284;2022-10-03T19:17:24;13.40;99.90
52159;DHT22;38145;53.182;6.284;2022-10-03T19:19:59;13.30;99.90
52159;DHT22;38145;53.182;6.284;2022-10-03T19:22:32;13.20;99.90
52159;DHT22;38145;53.182;6.284;2022-10-03T19:25:04;13.10;99.90
52159;DHT22;38145;53.182;6.284;2022-10-03T19:27:41;13.20;99.90
52159;DHT22;38145;53.182;6.284;2022-10-03T19:30:18;13.20;99.90
52159;DHT22;38145;53.182;6.284;2022-10-03T19:32:55;13.30;99.90
52159;DHT22;38145;53.182;6.284;2022-10-03T19:35:24;13.10;99.90
52159;DHT22;38145;53.182;6.284;2022-10-03T19:37:54;13.30;99.90
52159;DHT22;38145;53.182;6.284;2022-10-03T19:43:37;13.00;99.90
52159;DHT22;38145;53.182;6.284;2022-10-03T19:48:32;12.90;99.90
52159;DHT22;38145;53.182;6.284;2022-10-03T19:51:09;13.20;99.90
52159;DHT22;38145;53.182;6.284;2022-10-03T19:53:40;12.90;99.90
52159;DHT22;38145;53.182;6.284;2022-10-03T19:56:13;12.90;99.90
52159;DHT22;38145;53.182;6.284;2022-10-03T19:58:43;12.80;99.90
52159;DHT22;38145;53.182;6.284;2022-10-03T20:01:09;12.90;99.90
52159;DHT22;38145;53.182;6.284;2022-10-03T20:03:44;12.90;99.90
52159;DHT22;38145;53.182;6.284;2022-10-03T20:06:18;12.90;99.90
52159;DHT22;38145;53.182;6.284;2022-10-03T20:08:54;12.70;99.90
52159;DHT22;38145;53.182;6.284;2022-10-03T20:14:06;12.90;99.90
52159;DHT22;38145;53.182;6.284;2022-10-03T20:16:41;12.80;99.90
52159;DHT22;38145;53.182;6.284;2022-10-03T20:19:13;12.90;99.90
52159;DHT22;38145;53.182;6.284;2022-10-03T20:21:42;13.00;99.90
52159;DHT22;38145;53.182;6.284;2022-10-03T20:24:17;12.70;99.90
52159;DHT22;38145;53.182;6.284;2022-10-03T20:26:55;12.80;99.90
52159;DHT22;38145;53.182;6.284;2022-10-03T20:29:35;12.90;99.90
52159;DHT22;38145;53.182;6.284;2022-10-03T20:32:04;13.00;99.90
52159;DHT22;38145;53.182;6.284;2022-10-03T20:34:33;12.90;99.90
52159;DHT22;38145;53.182;6.284;2022-10-03T20:37:16;12.70;99.90
52159;DHT22;38145;53.182;6.284;2022-10-03T20:39:48;12.80;99.90
52159;DHT22;38145;53.182;6.284;2022-10-03T20:42:19;12.80;99.90
52159;DHT22;38145;53.182;6.284;2022-10-03T20:45:02;12.60;99.90
52159;DHT22;38145;53.182;6.284;2022-10-03T20:47:44;12.50;99.90
52159;DHT22;38145;53.182;6.284;2022-10-03T20:50:26;12.60;99.90
52159;DHT22;38145;53.182;6.284;2022-10-03T20:53:00;12.90;99.90
52159;DHT22;38145;53.182;6.284;2022-10-03T20:55:31;12.60;99.90
52159;DHT22;38145;53.182;6.284;2022-10-03T20:58:09;12.70;99.90
52159;DHT22;38145;53.182;6.284;2022-10-03T21:00:43;12.70;99.90
52159;DHT22;38145;53.182;6.284;2022-10-03T21:03:20;12.70;99.90
52159;DHT22;38145;53.182;6.284;2022-10-03T21:05:52;12.90;99.90
52159;DHT22;38145;53.182;6.284;2022-10-03T21:10:54;13.00;99.90
52159;DHT22;38145;53.182;6.284;2022-10-03T21:13:30;12.70;99.90
52159;DHT22;38145;53.182;6.284;2022-10-03T21:15:59;12.70;99.90
52159;DHT22;38145;53.182;6.284;2022-10-03T21:18:34;12.60;99.90
52159;DHT22;38145;53.182;6.284;2022-10-03T21:23:37;12.80;99.90
52159;DHT22;38145;53.182;6.284;2022-10-03T21:26:05;12.50;99.90
52159;DHT22;38145;53.182;6.284;2022-10-03T21:32:26;12.70;99.90
52159;DHT22;38145;53.182;6.284;2022-10-03T21:38:10;12.80;99.90
52159;DHT22;38145;53.182;6.284;2022-10-03T21:43:18;12.70;99.90
52159;DHT22;38145;53.182;6.284;2022-10-03T21:45:58;12.50;99.90
52159;DHT22;38145;53.182;6.284;2022-10-03T21:51:13;12.60;99.90
52159;DHT22;38145;53.182;6.284;2022-10-03T21:53:58;12.40;99.90
52159;DHT22;38145;53.182;6.284;2022-10-03T21:56:51;12.70;99.90
52159;DHT22;38145;53.182;6.284;2022-10-03T21:59:35;12.50;99.90
52159;DHT22;38145;53.182;6.284;2022-10-03T22:02:10;12.30;99.90
52159;DHT22;38145;53.182;6.284;2022-10-03T22:04:48;12.30;99.90
52159;DHT22;38145;53.182;6.284;2022-10-03T22:07:31;12.30;99.90
52159;DHT22;38145;53.182;6.284;2022-10-03T22:09:58;12.50;99.90
52159;DHT22;38145;53.182;6.284;2022-10-03T22:12:38;12.30;99.90
52159;DHT22;38145;53.182;6.284;2022-10-03T22:15:11;12.50;99.90
52159;DHT22;38145;53.182;6.284;2022-10-03T22:17:49;12.30;99.90
52159;DHT22;38145;53.182;6.284;2022-10-03T22:20:19;12.10;99.90
52159;DHT22;38145;53.182;6.284;2022-10-03T22:25:37;12.50;99.90
52159;DHT22;38145;53.182;6.284;2022-10-03T22:28:19;12.50;99.90
52159;DHT22;38145;53.182;6.284;2022-10-03T22:33:38;12.40;99.90
52159;DHT22;38145;53.182;6.284;2022-10-03T22:36:08;12.30;99.90